createdAt,value
2018-01-28T00:00:37.455Z,5.80
2018-01-28T00:03:05.306Z,5.80
2018-01-28T00:05:32.195Z,5.80
2018-01-28T00:07:58.233Z,5.80
2018-01-28T00:10:25.089Z,5.80
2018-01-28T00:12:51.835Z,5.80
2018-01-28T00:15:17.814Z,5.90
2018-01-28T00:17:43.880Z,5.80
2018-01-28T00:20:09.956Z,5.90
2018-01-28T00:22:36.044Z,5.80
2018-01-28T00:25:02.182Z,5.80
2018-01-28T00:27:29.018Z,5.80
2018-01-28T00:29:55.089Z,5.70
2018-01-28T00:32:22.636Z,5.80
2018-01-28T00:34:48.612Z,5.80
2018-01-28T00:37:14.651Z,5.80
2018-01-28T00:39:41.601Z,5.80
2018-01-28T00:42:07.625Z,5.90
2018-01-28T00:44:33.673Z,5.80
2018-01-28T00:46:59.806Z,5.80
2018-01-28T00:49:25.846Z,5.80
2018-01-28T00:51:51.910Z,5.90
2018-01-28T00:54:17.905Z,5.80
2018-01-28T00:56:43.968Z,5.80
2018-01-28T00:59:11.881Z,5.90
2018-01-28T01:01:37.955Z,5.90
2018-01-28T01:04:04.267Z,5.90
2018-01-28T01:06:30.418Z,5.90
2018-01-28T01:08:56.548Z,6.00
2018-01-28T01:11:23.360Z,5.90
2018-01-28T01:13:49.355Z,5.80
2018-01-28T01:16:15.460Z,5.90
2018-01-28T01:18:42.432Z,5.90
2018-01-28T01:21:09.285Z,5.90
2018-01-28T01:23:35.290Z,5.90
2018-01-28T01:26:01.271Z,5.90
2018-01-28T01:28:27.384Z,5.90
2018-01-28T01:30:54.131Z,5.90
2018-01-28T01:33:20.956Z,5.90
2018-01-28T01:35:47.687Z,6.00
2018-01-28T01:38:14.561Z,5.90
2018-01-28T01:40:41.279Z,5.90
2018-01-28T01:43:07.460Z,6.00
2018-01-28T01:45:34.444Z,6.10
2018-01-28T01:48:00.600Z,6.00
2018-01-28T01:50:26.756Z,6.00
2018-01-28T01:52:52.897Z,6.00
2018-01-28T01:55:20.010Z,6.20
2018-01-28T01:57:47.064Z,6.10
2018-01-28T02:00:13.075Z,6.10
2018-01-28T02:02:39.301Z,5.90
2018-01-28T02:05:05.428Z,6.10
2018-01-28T02:07:31.519Z,6.10
2018-01-28T02:09:58.204Z,5.90
2018-01-28T02:12:26.735Z,6.10
2018-01-28T02:14:53.638Z,6.10
2018-01-28T02:17:19.718Z,6.10
2018-01-28T02:19:46.467Z,6.20
2018-01-28T02:22:12.450Z,6.10
2018-01-28T02:24:38.507Z,6.20
2018-01-28T02:27:04.642Z,6.10
2018-01-28T02:29:30.649Z,6.10
2018-01-28T02:31:56.686Z,6.10
2018-01-28T02:34:24.110Z,6.10
2018-01-28T02:36:50.868Z,6.20
2018-01-28T02:39:16.844Z,6.20
2018-01-28T02:41:42.894Z,6.10
2018-01-28T02:44:09.675Z,6.10
2018-01-28T02:46:35.654Z,6.20
2018-01-28T02:49:02.410Z,6.10
2018-01-28T02:51:28.415Z,6.00
2018-01-28T02:53:54.644Z,6.10
2018-01-28T02:56:21.567Z,6.10
2018-01-28T02:58:47.540Z,6.20
2018-01-28T03:01:13.466Z,6.10
2018-01-28T03:03:40.342Z,6.00
2018-01-28T03:06:06.366Z,6.10
2018-01-28T03:08:32.368Z,6.10
2018-01-28T03:10:59.042Z,6.10
2018-01-28T03:13:25.011Z,6.10
2018-01-28T03:15:51.058Z,6.10
2018-01-28T03:18:17.007Z,6.20
2018-01-28T03:20:43.418Z,6.20
2018-01-28T03:23:09.442Z,6.20
2018-01-28T03:25:35.442Z,6.20
2018-01-28T03:28:02.485Z,6.20
2018-01-28T03:30:29.451Z,6.10
2018-01-28T03:32:56.327Z,6.20
2018-01-28T03:35:22.307Z,6.20
2018-01-28T03:37:49.156Z,6.20
2018-01-28T03:40:15.183Z,6.20
2018-01-28T03:42:41.929Z,6.30
2018-01-28T03:45:07.939Z,6.20
2018-01-28T03:47:33.972Z,6.30
2018-01-28T03:49:59.917Z,6.30
2018-01-28T03:52:25.891Z,6.30
2018-01-28T03:54:52.704Z,6.30
2018-01-28T03:57:20.071Z,6.30
2018-01-28T03:59:46.038Z,6.20
2018-01-28T04:02:12.003Z,6.30
2018-01-28T04:04:38.128Z,6.30
2018-01-28T04:07:04.106Z,6.30
2018-01-28T04:09:30.056Z,6.30
2018-01-28T04:11:56.011Z,6.30
2018-01-28T04:14:22.002Z,6.50
2018-01-28T04:16:48.012Z,6.30
2018-01-28T04:19:14.750Z,6.30
2018-01-28T04:21:43.544Z,6.30
2018-01-28T04:24:10.220Z,6.30
2018-01-28T04:26:36.248Z,6.30
2018-01-28T04:29:02.333Z,6.30
2018-01-28T04:31:28.363Z,6.30
2018-01-28T04:33:54.494Z,6.30
2018-01-28T04:36:20.456Z,6.30
2018-01-28T04:38:47.000Z,6.30
2018-01-28T04:41:13.010Z,6.20
2018-01-28T04:43:39.817Z,6.30
2018-01-28T04:46:06.687Z,6.20
2018-01-28T04:48:33.597Z,6.20
2018-01-28T04:50:59.659Z,6.20
2018-01-28T04:53:26.748Z,6.20
2018-01-28T04:55:53.796Z,6.30
2018-01-28T04:58:21.502Z,6.20
2018-01-28T05:00:48.063Z,6.20
2018-01-28T05:03:14.027Z,6.10
2018-01-28T05:05:40.974Z,6.00
2018-01-28T05:08:06.959Z,6.00
2018-01-28T05:10:32.995Z,6.00
2018-01-28T05:12:59.147Z,6.00
2018-01-28T05:15:25.991Z,5.80
2018-01-28T05:17:52.080Z,5.70
2018-01-28T05:20:18.977Z,5.70
2018-01-28T05:22:46.222Z,5.70
2018-01-28T05:25:12.236Z,5.70
2018-01-28T05:27:38.223Z,5.60
2018-01-28T05:30:04.959Z,5.60
2018-01-28T05:32:30.914Z,5.50
2018-01-28T05:34:56.931Z,5.60
2018-01-28T05:37:22.934Z,5.50
2018-01-28T05:39:49.746Z,5.50
2018-01-28T05:42:16.419Z,5.40
2018-01-28T05:44:42.443Z,5.40
2018-01-28T05:47:08.447Z,5.40
2018-01-28T05:49:34.492Z,5.40
2018-01-28T05:52:00.500Z,5.40
2018-01-28T05:54:26.554Z,5.30
2018-01-28T05:56:53.333Z,5.30
2018-01-28T05:59:19.848Z,5.30
2018-01-28T06:01:45.849Z,5.30
2018-01-28T06:04:11.789Z,5.40
2018-01-28T06:06:37.878Z,5.30
2018-01-28T06:09:03.906Z,5.30
2018-01-28T06:11:29.969Z,5.30
2018-01-28T06:13:55.908Z,5.40
2018-01-28T06:16:21.973Z,5.30
2018-01-28T06:18:48.650Z,5.40
2018-01-28T06:21:15.408Z,5.40
2018-01-28T06:23:41.379Z,5.40
2018-01-28T06:26:07.349Z,5.40
2018-01-28T06:28:33.411Z,5.50
2018-01-28T06:31:00.160Z,5.50
2018-01-28T06:33:26.090Z,5.50
2018-01-28T06:35:52.864Z,5.60
2018-01-28T06:38:19.346Z,5.60
2018-01-28T06:40:45.888Z,5.60
2018-01-28T06:43:13.236Z,5.60
2018-01-28T06:45:39.366Z,5.50
2018-01-28T06:48:05.441Z,5.70
2018-01-28T06:50:31.770Z,5.60
2018-01-28T06:52:57.817Z,5.60
2018-01-28T06:55:23.795Z,5.60
2018-01-28T06:57:49.790Z,5.70
2018-01-28T07:00:15.789Z,5.70
2018-01-28T07:02:41.712Z,5.70
2018-01-28T07:05:07.666Z,5.70
2018-01-28T07:07:34.406Z,5.70
2018-01-28T07:10:01.178Z,5.80
2018-01-28T07:12:27.196Z,5.70
2018-01-28T07:14:53.273Z,5.80
2018-01-28T07:17:19.246Z,5.80
2018-01-28T07:19:45.350Z,5.80
2018-01-28T07:22:12.109Z,5.90
2018-01-28T07:24:38.088Z,5.80
2018-01-28T07:27:04.007Z,5.90
2018-01-28T07:29:29.954Z,5.90
2018-01-28T07:31:55.950Z,5.90
2018-01-28T07:34:21.974Z,5.90
2018-01-28T07:36:48.028Z,5.90
2018-01-28T07:39:14.967Z,6.00
2018-01-28T07:41:40.932Z,6.00
2018-01-28T07:44:07.061Z,6.00
2018-01-28T07:46:33.037Z,6.10
2018-01-28T07:48:59.131Z,6.10
2018-01-28T07:51:25.980Z,6.10
2018-01-28T07:53:53.513Z,6.10
2018-01-28T07:56:19.809Z,6.10
2018-01-28T07:58:45.903Z,6.10
2018-01-28T08:01:12.389Z,6.10
2018-01-28T08:03:38.503Z,6.20
2018-01-28T08:06:06.615Z,6.20
2018-01-28T08:08:32.697Z,6.20
2018-01-28T08:10:59.814Z,6.20
2018-01-28T08:13:32.122Z,6.30
2018-01-28T08:15:58.267Z,6.20
2018-01-28T08:18:24.297Z,6.30
2018-01-28T08:20:50.372Z,6.30
2018-01-28T08:23:16.674Z,6.30
2018-01-28T08:25:42.987Z,6.30
2018-01-28T08:28:24.809Z,6.40
2018-01-28T08:30:51.959Z,6.30
2018-01-28T08:33:18.053Z,6.40
2018-01-28T08:35:44.120Z,6.40
2018-01-28T08:38:10.136Z,6.40
2018-01-28T08:40:36.227Z,6.40
2018-01-28T08:43:02.662Z,6.50
2018-01-28T08:45:30.218Z,6.40
2018-01-28T08:47:56.978Z,6.40
2018-01-28T08:50:23.007Z,6.50
2018-01-28T08:52:49.747Z,6.50
2018-01-28T08:55:15.726Z,6.50
2018-01-28T08:57:41.681Z,6.50
2018-01-28T09:00:07.582Z,6.50
2018-01-28T09:02:34.228Z,6.60
2018-01-28T09:05:00.235Z,6.60
2018-01-28T09:07:26.215Z,6.60
2018-01-28T09:09:52.441Z,6.50
2018-01-28T09:12:18.419Z,6.50
2018-01-28T09:14:44.423Z,6.50
2018-01-28T09:17:10.363Z,6.60
2018-01-28T09:19:37.052Z,6.70
2018-01-28T09:22:03.670Z,6.60
2018-01-28T09:24:29.620Z,6.60
2018-01-28T09:26:55.557Z,6.60
2018-01-28T09:29:21.535Z,6.30
2018-01-28T09:31:47.502Z,6.50
2018-01-28T09:34:13.405Z,6.40
2018-01-28T09:36:39.342Z,6.60
2018-01-28T09:39:06.220Z,6.60
2018-01-28T09:41:32.182Z,6.60
2018-01-28T09:43:58.128Z,6.70
2018-01-28T09:46:24.163Z,6.80
2018-01-28T09:48:50.860Z,6.90
2018-01-28T09:51:16.790Z,6.90
2018-01-28T09:53:42.756Z,7.00
2018-01-28T09:56:08.719Z,6.90
2018-01-28T09:58:34.700Z,7.20
2018-01-28T10:01:01.526Z,7.10
2018-01-28T10:03:27.491Z,7.10
2018-01-28T10:05:54.187Z,7.20
2018-01-28T10:08:20.485Z,7.50
2018-01-28T10:10:46.437Z,7.40
2018-01-28T10:13:12.398Z,7.40
2018-01-28T10:15:38.351Z,7.40
2018-01-28T10:18:04.385Z,7.40
2018-01-28T10:20:30.352Z,7.40
2018-01-28T10:22:56.335Z,7.40
2018-01-28T10:25:22.367Z,7.40
2018-01-28T10:27:49.325Z,7.50
2018-01-28T10:30:15.271Z,7.40
2018-01-28T10:32:41.805Z,7.50
2018-01-28T10:35:07.749Z,7.50
2018-01-28T10:37:33.808Z,7.50
2018-01-28T10:40:01.479Z,7.60
2018-01-28T10:42:27.513Z,7.50
2018-01-28T10:44:54.258Z,7.60
2018-01-28T10:47:21.852Z,7.60
2018-01-28T10:49:47.843Z,7.70
2018-01-28T10:52:13.766Z,7.60
2018-01-28T10:54:39.755Z,7.70
2018-01-28T10:57:05.728Z,7.70
2018-01-28T10:59:31.772Z,7.70
2018-01-28T11:02:00.664Z,7.70
2018-01-28T11:04:26.652Z,7.70
2018-01-28T11:06:52.694Z,7.70
2018-01-28T11:09:20.138Z,7.80
2018-01-28T11:11:46.143Z,7.80
2018-01-28T11:14:12.177Z,7.80
2018-01-28T11:16:38.271Z,7.90
2018-01-28T11:19:05.353Z,7.90
2018-01-28T11:21:32.094Z,8.00
2018-01-28T11:23:58.800Z,7.90
2018-01-28T11:26:26.570Z,8.00
2018-01-28T11:28:53.152Z,8.00
2018-01-28T11:31:19.173Z,8.10
2018-01-28T11:33:45.170Z,8.10
2018-01-28T11:36:11.183Z,8.10
2018-01-28T11:38:37.189Z,8.10
2018-01-28T11:41:03.951Z,8.20
2018-01-28T11:43:29.887Z,8.10
2018-01-28T11:45:55.903Z,8.20
2018-01-28T11:48:21.929Z,8.20
2018-01-28T11:50:48.042Z,8.10
2018-01-28T11:53:14.013Z,8.20
2018-01-28T11:55:40.317Z,8.20
2018-01-28T11:58:06.383Z,8.20
2018-01-28T12:00:33.143Z,8.30
2018-01-28T12:02:59.185Z,8.20
2018-01-28T12:05:26.131Z,8.30
2018-01-28T12:07:52.159Z,8.30
2018-01-28T12:10:18.197Z,8.40
2018-01-28T12:12:44.204Z,8.40
2018-01-28T12:15:11.299Z,8.40
2018-01-28T12:17:38.499Z,8.40
2018-01-28T12:20:04.624Z,8.40
2018-01-28T12:22:30.695Z,8.40
2018-01-28T12:24:56.648Z,8.40
2018-01-28T12:27:22.602Z,8.40
2018-01-28T12:29:48.518Z,8.40
2018-01-28T12:32:14.563Z,8.40
2018-01-28T12:34:40.925Z,8.50
2018-01-28T12:37:11.490Z,8.50
2018-01-28T12:39:38.194Z,8.50
2018-01-28T12:42:04.161Z,8.50
2018-01-28T12:44:30.269Z,8.50
2018-01-28T12:46:56.229Z,8.50
2018-01-28T12:49:22.207Z,8.40
2018-01-28T12:51:48.439Z,8.60
2018-01-28T12:54:14.454Z,8.60
2018-01-28T12:56:40.517Z,8.50
2018-01-28T12:59:06.527Z,8.60
2018-01-28T13:01:32.469Z,8.60
2018-01-28T13:04:02.002Z,8.70
2018-01-28T13:06:28.774Z,8.70
2018-01-28T13:08:56.137Z,8.70
2018-01-28T13:11:22.462Z,8.80
2018-01-28T13:13:49.736Z,8.80
2018-01-28T13:16:16.811Z,8.80
2018-01-28T13:18:43.032Z,8.80
2018-01-28T13:21:09.326Z,8.80
2018-01-28T13:23:35.263Z,8.90
2018-01-28T13:26:02.086Z,8.90
2018-01-28T13:28:28.763Z,9.00
2018-01-28T13:30:54.873Z,9.10
2018-01-28T13:33:21.039Z,9.10
2018-01-28T13:35:46.977Z,9.00
2018-01-28T13:38:13.471Z,9.00
2018-01-28T13:40:39.457Z,8.90
2018-01-28T13:43:05.470Z,8.90
2018-01-28T13:45:31.442Z,8.80
2018-01-28T13:47:57.816Z,8.80
2018-01-28T13:50:23.828Z,8.80
2018-01-28T13:52:49.867Z,8.90
2018-01-28T13:55:17.074Z,8.90
2018-01-28T13:57:44.487Z,8.90
2018-01-28T14:00:10.727Z,8.80
2018-01-28T14:02:37.673Z,8.90
2018-01-28T14:05:03.686Z,8.90
2018-01-28T14:07:29.861Z,9.00
2018-01-28T14:09:58.126Z,9.10
2018-01-28T14:12:24.511Z,9.00
2018-01-28T14:14:51.496Z,9.10
2018-01-28T14:17:20.951Z,9.10
2018-01-28T14:19:48.078Z,9.10
2018-01-28T14:22:14.533Z,9.10
2018-01-28T14:24:41.826Z,9.20
2018-01-28T14:29:38.689Z,9.10
2018-01-28T14:32:05.001Z,9.10
2018-01-28T14:34:30.995Z,9.10
2018-01-28T14:36:56.962Z,9.10
2018-01-28T14:39:23.084Z,9.10
2018-01-28T14:41:49.864Z,9.30
2018-01-28T14:44:15.923Z,9.20
2018-01-28T14:46:42.339Z,9.30
2018-01-28T14:49:08.442Z,9.20
2018-01-28T14:51:34.802Z,9.20
2018-01-28T14:54:01.014Z,9.00
2018-01-28T14:56:27.723Z,9.10
2018-01-28T14:58:53.731Z,9.20
2018-01-28T15:01:19.887Z,9.20
2018-01-28T15:03:46.206Z,9.30
2018-01-28T15:06:13.847Z,9.10
2018-01-28T15:08:40.101Z,9.10
2018-01-28T15:11:06.098Z,9.10
2018-01-28T15:13:32.926Z,9.10
2018-01-28T15:15:59.882Z,9.10
2018-01-28T15:18:26.539Z,9.10
2018-01-28T15:20:52.521Z,9.10
2018-01-28T15:23:20.806Z,9.10
2018-01-28T15:25:50.194Z,9.00
2018-01-28T15:28:18.745Z,9.00
2018-01-28T15:30:44.659Z,9.00
2018-01-28T15:33:14.496Z,8.90
2018-01-28T15:35:43.549Z,9.00
2018-01-28T15:38:12.284Z,8.90
2018-01-28T15:40:40.759Z,8.90
2018-01-28T15:43:09.887Z,8.90
2018-01-28T15:45:40.243Z,8.90
2018-01-28T15:48:20.165Z,8.60
2018-01-28T15:50:46.284Z,8.90
2018-01-28T15:53:13.762Z,8.70
2018-01-28T15:55:41.839Z,8.90
2018-01-28T15:58:07.834Z,8.90
2018-01-28T16:00:34.458Z,8.80
2018-01-28T16:03:02.114Z,8.90
2018-01-28T16:05:29.832Z,8.80
2018-01-28T16:07:56.769Z,8.80
2018-01-28T16:10:23.720Z,8.80
2018-01-28T16:12:51.018Z,8.70
2018-01-28T16:15:17.987Z,8.70
2018-01-28T16:17:46.876Z,8.70
2018-01-28T16:20:13.595Z,8.60
2018-01-28T16:22:41.291Z,8.70
2018-01-28T16:25:07.952Z,8.70
2018-01-28T16:27:33.944Z,8.70
2018-01-28T16:30:01.670Z,8.60
2018-01-28T16:32:28.729Z,8.60
2018-01-28T16:34:54.707Z,8.60
2018-01-28T16:37:21.642Z,8.60
2018-01-28T16:39:48.390Z,8.50
2018-01-28T16:42:15.961Z,8.70
2018-01-28T16:44:41.927Z,8.50
2018-01-28T16:47:08.220Z,8.60
2018-01-28T16:49:35.079Z,8.50
2018-01-28T16:52:01.803Z,8.50
2018-01-28T16:54:29.539Z,8.60
2018-01-28T16:56:57.689Z,8.50
2018-01-28T16:59:24.089Z,8.60
2018-01-28T17:01:50.757Z,8.50
2018-01-28T17:06:48.880Z,8.60
2018-01-28T17:09:18.778Z,8.80
2018-01-28T17:11:45.287Z,8.70
2018-01-28T17:14:11.318Z,8.70
2018-01-28T17:16:38.042Z,8.70
2018-01-28T17:19:04.028Z,8.70
2018-01-28T17:21:30.016Z,8.70
2018-01-28T17:23:56.722Z,8.70
2018-01-28T17:26:22.640Z,8.70
2018-01-28T17:28:48.615Z,8.80
2018-01-28T17:31:14.546Z,8.70
2018-01-28T17:33:40.494Z,8.80
2018-01-28T17:36:07.076Z,8.80
2018-01-28T17:38:33.045Z,8.70
2018-01-28T17:40:59.015Z,8.90
2018-01-28T17:43:25.767Z,8.80
2018-01-28T17:45:51.883Z,8.90
2018-01-28T17:48:18.824Z,8.80
2018-01-28T17:50:45.470Z,8.80
2018-01-28T17:53:11.467Z,9.00
2018-01-28T17:55:39.566Z,8.90
2018-01-28T17:58:07.706Z,8.90
2018-01-28T18:00:34.763Z,8.90
2018-01-28T18:03:01.261Z,8.90
2018-01-28T18:05:27.273Z,8.90
2018-01-28T18:07:57.027Z,8.90
2018-01-28T18:10:28.858Z,8.90
2018-01-28T18:12:55.902Z,8.90
2018-01-28T18:15:26.408Z,8.90
2018-01-28T18:17:55.482Z,8.90
2018-01-28T18:20:21.498Z,8.90
2018-01-28T18:22:47.523Z,8.90
2018-01-28T18:25:13.549Z,8.90
2018-01-28T18:27:41.440Z,8.90
2018-01-28T18:30:08.548Z,8.90
2018-01-28T18:32:34.649Z,8.90
2018-01-28T18:35:03.880Z,8.90
2018-01-28T18:37:32.058Z,8.90
2018-01-28T18:40:00.746Z,8.70
2018-01-28T18:42:31.082Z,8.90
2018-01-28T18:44:58.907Z,8.70
2018-01-28T18:47:24.906Z,8.90
2018-01-28T18:49:52.518Z,8.80
2018-01-28T18:52:21.377Z,8.80
2018-01-28T18:54:47.944Z,8.90
2018-01-28T18:57:16.209Z,8.80
2018-01-28T18:59:47.040Z,8.80
2018-01-28T19:02:14.533Z,8.80
2018-01-28T19:04:43.124Z,8.80
2018-01-28T19:07:12.387Z,8.80
2018-01-28T19:09:38.420Z,8.80
2018-01-28T19:12:06.999Z,8.80
2018-01-28T19:14:34.051Z,8.70
2018-01-28T19:17:03.747Z,8.70
2018-01-28T19:19:34.301Z,8.70
2018-01-28T19:22:00.885Z,8.70
2018-01-28T19:24:29.343Z,8.70
2018-01-28T19:26:56.872Z,8.70
2018-01-28T19:29:23.757Z,8.70
2018-01-28T19:31:52.919Z,8.50
2018-01-28T19:34:20.269Z,8.70
2018-01-28T19:36:48.436Z,8.70
2018-01-28T19:39:15.554Z,8.70
2018-01-28T19:41:42.570Z,8.60
2018-01-28T19:44:10.358Z,8.60
2018-01-28T19:46:37.654Z,8.50
2018-01-28T19:49:05.125Z,8.60
2018-01-28T19:51:37.317Z,8.60
2018-01-28T19:54:05.107Z,8.70
2018-01-28T19:56:32.036Z,8.60
2018-01-28T19:58:59.346Z,8.70
2018-01-28T20:01:25.494Z,8.60
2018-01-28T20:03:54.465Z,8.70
2018-01-28T20:06:21.510Z,8.70
2018-01-28T20:08:49.839Z,8.80
2018-01-28T20:11:18.393Z,8.70
2018-01-28T20:13:45.657Z,8.70
2018-01-28T20:16:15.085Z,8.80
2018-01-28T20:18:42.551Z,8.80
2018-01-28T20:21:09.790Z,8.70
2018-01-28T20:23:37.087Z,8.80
2018-01-28T20:26:04.800Z,8.80
2018-01-28T20:28:34.919Z,8.80
2018-01-28T20:31:01.008Z,8.90
2018-01-28T20:33:29.987Z,8.80
2018-01-28T20:35:57.406Z,8.70
2018-01-28T20:38:25.682Z,8.80
2018-01-28T20:40:51.710Z,8.70
2018-01-28T20:43:21.871Z,8.80
2018-01-28T20:45:50.412Z,8.80
2018-01-28T20:48:19.351Z,8.90
2018-01-28T20:50:48.483Z,8.80
2018-01-28T20:53:18.474Z,8.80
2018-01-28T20:55:45.542Z,8.80
2018-01-28T20:58:11.744Z,8.80
2018-01-28T21:00:41.426Z,8.70
2018-01-28T21:03:10.242Z,8.60
2018-01-28T21:05:38.563Z,8.70
2018-01-28T21:08:06.057Z,8.70
2018-01-28T21:10:34.775Z,8.80
2018-01-28T21:13:02.268Z,8.80
2018-01-28T21:15:30.582Z,8.80
2018-01-28T21:17:57.426Z,8.80
2018-01-28T21:20:25.351Z,8.70
2018-01-28T21:22:54.007Z,8.80
2018-01-28T21:25:22.071Z,8.70
2018-01-28T21:27:48.933Z,8.80
2018-01-28T21:30:15.571Z,8.70
2018-01-28T21:32:42.811Z,8.80
2018-01-28T21:35:09.740Z,8.90
2018-01-28T21:37:40.119Z,8.80
2018-01-28T21:40:06.636Z,8.70
2018-01-28T21:42:33.290Z,9.00
2018-01-28T21:45:00.789Z,9.00
2018-01-28T21:47:28.982Z,8.90
2018-01-28T21:49:58.572Z,8.70
2018-01-28T21:52:26.040Z,8.90
2018-01-28T21:54:54.328Z,8.90
2018-01-28T21:57:21.074Z,8.90
2018-01-28T21:59:47.631Z,8.90
2018-01-28T22:02:15.343Z,8.90
2018-01-28T22:04:43.210Z,8.90
2018-01-28T22:07:09.248Z,8.90
2018-01-28T22:09:46.047Z,8.90
2018-01-28T22:12:15.011Z,9.00
2018-01-28T22:14:43.718Z,8.90
2018-01-28T22:17:12.057Z,8.90
2018-01-28T22:19:40.182Z,8.90
2018-01-28T22:22:07.653Z,8.90
2018-01-28T22:24:34.146Z,8.90
2018-01-28T22:27:01.722Z,8.90
2018-01-28T22:29:28.953Z,9.00
2018-01-28T22:31:56.975Z,8.90
2018-01-28T22:34:23.721Z,8.90
2018-01-28T22:36:50.302Z,8.90
2018-01-28T22:39:16.271Z,8.90
2018-01-28T22:41:42.209Z,8.90
2018-01-28T22:44:08.173Z,8.90
2018-01-28T22:46:34.372Z,8.90
2018-01-28T22:49:01.146Z,9.10
2018-01-28T22:51:28.218Z,8.90
2018-01-28T22:53:54.215Z,9.00
2018-01-28T22:56:20.688Z,8.90
2018-01-28T22:58:46.607Z,9.00
2018-01-28T23:01:12.566Z,9.00
2018-01-28T23:03:38.623Z,8.90
2018-01-28T23:06:05.307Z,8.90
2018-01-28T23:08:31.754Z,9.00
2018-01-28T23:10:58.507Z,9.00
2018-01-28T23:13:24.446Z,9.00
2018-01-28T23:15:50.465Z,9.10
2018-01-28T23:18:19.252Z,8.90
2018-01-28T23:20:49.273Z,9.00
2018-01-28T23:23:15.805Z,9.00
2018-01-28T23:25:43.093Z,9.00
2018-01-28T23:28:09.660Z,8.90
2018-01-28T23:30:37.972Z,8.90
2018-01-28T23:33:07.959Z,8.90
2018-01-28T23:35:36.025Z,8.90
2018-01-28T23:38:02.810Z,9.00
2018-01-28T23:40:29.576Z,9.00
2018-01-28T23:42:55.553Z,9.00
2018-01-28T23:45:22.267Z,8.90
2018-01-28T23:47:49.771Z,9.00
2018-01-28T23:50:19.131Z,9.00
2018-01-28T23:52:46.355Z,9.00
2018-01-28T23:55:12.346Z,9.00
2018-01-28T23:57:38.593Z,8.90
